Time;durP1;ratioP1;P1;durP2;ratioP2;P2;SDS_P1;SDS_P2;PMS_P1;PMS_P2;Temp;Humidity;BMP_temperature;BMP_pressure;BME280_temperature;BME280_humidity;BME280_pressure;Samples;Min_cycle;Max_cycle;Signal;HPM_P1;HPM_P2
2023/01/06 00:00:37;;;;;;;10.93;1.40;;;10.90;99.90;;;;;;5077092;28;20399;-71
2023/01/06 00:03:03;;;;;;;11.75;2.88;;;10.90;99.90;;;;;;5074883;28;20063;-71
2023/01/06 00:05:29;;;;;;;14.57;2.28;;;10.90;99.90;;;;;;5072675;28;20034;-71
2023/01/06 00:07:55;;;;;;;13.20;1.65;;;10.90;99.90;;;;;;5075510;28;20456;-71
2023/01/06 00:10:21;;;;;;;7.38;1.20;;;10.90;99.90;;;;;;5076457;28;20335;-71
2023/01/06 00:12:48;;;;;;;19.65;1.90;;;10.90;99.90;;;;;;5078529;28;20032;-71
2023/01/06 00:15:16;;;;;;;10.13;1.40;;;10.90;99.90;;;;;;5078224;28;20112;-71
2023/01/06 00:17:42;;;;;;;12.05;1.40;;;11.00;99.90;;;;;;5078955;28;20538;-71
2023/01/06 00:20:08;;;;;;;14.55;1.60;;;10.90;99.90;;;;;;5075976;28;20038;-71
2023/01/06 00:22:35;;;;;;;10.82;2.00;;;11.00;99.90;;;;;;5076425;28;20526;-71
2023/01/06 00:25:00;;;;;;;15.00;2.25;;;11.00;99.90;;;;;;5076427;28;20054;-71
2023/01/06 00:27:26;;;;;;;12.20;2.30;;;11.00;99.90;;;;;;5078681;28;20044;-71
2023/01/06 00:29:52;;;;;;;16.27;1.90;;;11.10;99.90;;;;;;5076516;28;20034;-71
2023/01/06 00:32:18;;;;;;;17.92;2.25;;;11.10;99.90;;;;;;5077513;28;20483;-71
2023/01/06 00:34:43;;;;;;;16.88;1.80;;;11.20;99.90;;;;;;5075681;28;20020;-71
2023/01/06 00:37:09;;;;;;;14.63;2.08;;;11.20;99.90;;;;;;5062939;28;20044;-71
2023/01/06 00:39:35;;;;;;;9.82;1.83;;;11.20;99.90;;;;;;5057418;28;20565;-71
2023/01/06 00:42:03;;;;;;;14.13;1.75;;;11.20;99.90;;;;;;5058377;28;20032;-71
2023/01/06 00:44:34;;;;;;;17.10;2.25;;;11.20;99.90;;;;;;5057590;28;20024;-71
2023/01/06 00:47:01;;;;;;;13.43;1.80;;;11.20;99.90;;;;;;5048914;28;20044;-72
2023/01/06 00:49:27;;;;;;;20.40;2.15;;;11.20;99.90;;;;;;5039227;28;20029;-71
2023/01/06 00:51:53;;;;;;;13.52;1.77;;;11.30;99.90;;;;;;5052458;28;20447;-71
2023/01/06 00:54:19;;;;;;;12.18;1.80;;;11.20;99.90;;;;;;5057208;28;20039;-70
2023/01/06 00:56:49;;;;;;;11.70;1.75;;;11.20;99.90;;;;;;5057760;28;20336;-71
2023/01/06 00:59:17;;;;;;;12.02;1.50;;;11.20;99.90;;;;;;5039425;28;20040;-70
2023/01/06 01:01:44;;;;;;;10.55;1.83;;;11.30;99.90;;;;;;5054143;28;20043;-71
2023/01/06 01:04:10;;;;;;;13.80;2.10;;;11.30;99.90;;;;;;5049473;28;20032;-71
2023/01/06 01:06:37;;;;;;;10.77;1.35;;;11.40;99.90;;;;;;5033954;28;20054;-71
2023/01/06 01:09:04;;;;;;;10.23;1.88;;;11.40;99.90;;;;;;5057760;28;20017;-71
2023/01/06 01:14:16;;;;;;;13.65;2.40;;;11.40;99.90;;;;;;5056963;28;20529;-73
2023/01/06 01:16:41;;;;;;;9.20;1.52;;;11.40;99.90;;;;;;5056602;28;20487;-73
2023/01/06 01:19:07;;;;;;;14.18;2.15;;;11.40;99.90;;;;;;5056577;28;20047;-73
2023/01/06 01:21:33;;;;;;;18.65;1.45;;;11.40;99.90;;;;;;5055140;28;20043;-73
2023/01/06 01:23:59;;;;;;;11.65;2.08;;;11.40;99.90;;;;;;5056015;28;20032;-73
2023/01/06 01:26:24;;;;;;;11.77;2.33;;;11.30;99.90;;;;;;5055788;28;20039;-72
2023/01/06 01:28:50;;;;;;;11.85;2.28;;;11.30;99.90;;;;;;5057752;28;20147;-72
2023/01/06 01:31:16;;;;;;;11.13;2.08;;;11.20;99.90;;;;;;5035208;28;20033;-73
2023/01/06 01:33:42;;;;;;;14.38;2.40;;;11.20;99.90;;;;;;5055918;28;20040;-72
2023/01/06 01:36:09;;;;;;;13.65;2.20;;;11.20;99.90;;;;;;5037623;28;20445;-73
2023/01/06 01:38:35;;;;;;;14.38;2.30;;;11.10;99.90;;;;;;5051689;28;20021;-72
2023/01/06 01:41:01;;;;;;;20.08;2.20;;;11.10;99.90;;;;;;5049664;28;20369;-72
2023/01/06 01:43:55;;;;;;;16.50;2.72;;;11.10;99.90;;;;;;5056058;28;20542;-72
2023/01/06 01:46:32;;;;;;;13.77;1.80;;;11.10;99.90;;;;;;5055827;28;20486;-72
2023/01/06 01:49:02;;;;;;;18.88;2.10;;;11.10;99.90;;;;;;5056701;28;20125;-72
2023/01/06 01:51:32;;;;;;;16.38;2.42;;;11.00;99.90;;;;;;5056125;28;20024;-72
2023/01/06 01:54:01;;;;;;;13.30;2.63;;;11.00;99.90;;;;;;5040366;28;20060;-70
2023/01/06 01:56:30;;;;;;;15.70;1.98;;;11.00;99.90;;;;;;5054461;28;20031;-72
2023/01/06 01:59:21;;;;;;;9.02;1.40;;;11.00;99.90;;;;;;5056895;28;20036;-72
2023/01/06 02:01:48;;;;;;;9.00;1.50;;;11.00;99.90;;;;;;5045391;28;20037;-71
2023/01/06 02:04:16;;;;;;;8.25;1.63;;;11.00;99.90;;;;;;5059911;28;20028;-71
2023/01/06 02:06:42;;;;;;;22.95;2.13;;;11.00;99.90;;;;;;5059314;28;20123;-71
2023/01/06 02:09:21;;;;;;;16.70;1.90;;;11.00;99.90;;;;;;5059134;28;20028;-72
2023/01/06 02:11:50;;;;;;;14.02;3.10;;;11.00;99.90;;;;;;5042388;28;20025;-71
2023/01/06 02:14:26;;;;;;;10.85;1.83;;;11.00;99.90;;;;;;5058719;28;20025;-72
2023/01/06 02:17:10;;;;;;;18.20;2.30;;;11.00;99.90;;;;;;5037941;28;20039;-72
2023/01/06 02:19:53;;;;;;;9.23;1.80;;;11.00;99.90;;;;;;5058845;28;20451;-72
2023/01/06 02:22:57;;;;;;;15.00;1.98;;;11.10;99.90;;;;;;5045853;28;20091;-71
2023/01/06 02:25:42;;;;;;;13.07;1.38;;;11.10;99.90;;;;;;5041644;28;20035;-71
2023/01/06 02:28:20;;;;;;;10.10;1.55;;;11.10;99.90;;;;;;5060059;28;20524;-70
2023/01/06 02:31:13;;;;;;;5.70;0.82;;;11.00;99.90;;;;;;5039276;28;20029;-71
2023/01/06 02:33:47;;;;;;;5.85;0.98;;;11.00;99.90;;;;;;5047251;28;20064;-71
2023/01/06 02:36:37;;;;;;;7.97;1.25;;;11.00;99.90;;;;;;5035582;28;20128;-71
2023/01/06 02:39:10;;;;;;;6.13;0.93;;;11.00;99.90;;;;;;5057853;28;20500;-71
2023/01/06 02:41:52;;;;;;;8.75;1.38;;;11.00;99.90;;;;;;5059767;28;20052;-71
2023/01/06 02:44:32;;;;;;;13.65;1.73;;;11.00;99.90;;;;;;5039896;28;20165;-71
2023/01/06 02:47:11;;;;;;;12.20;1.70;;;11.00;99.90;;;;;;5057560;28;20855;-71
2023/01/06 02:49:59;;;;;;;14.70;1.95;;;11.00;99.90;;;;;;5047417;28;20560;-72
2023/01/06 02:52:37;;;;;;;15.82;1.77;;;11.00;99.90;;;;;;5056395;28;20052;-72
2023/01/06 02:55:05;;;;;;;13.45;2.03;;;11.00;99.90;;;;;;5037732;28;20032;-72
2023/01/06 02:57:41;;;;;;;13.95;2.13;;;10.90;99.90;;;;;;5046758;28;20036;-72
2023/01/06 03:00:19;;;;;;;23.15;2.08;;;10.80;99.90;;;;;;5055067;28;20031;-71
2023/01/06 03:02:53;;;;;;;19.58;2.28;;;10.60;99.90;;;;;;5056493;28;20056;-71
2023/01/06 03:05:20;;;;;;;14.85;2.10;;;10.60;99.90;;;;;;5057785;28;20024;-71
2023/01/06 03:07:47;;;;;;;22.55;2.47;;;10.60;99.90;;;;;;5070416;28;20048;-71
2023/01/06 03:10:16;;;;;;;19.13;2.17;;;10.60;99.90;;;;;;5056473;28;20027;-71
2023/01/06 03:12:51;;;;;;;24.27;2.85;;;10.60;99.90;;;;;;5056792;28;20282;-71
2023/01/06 03:15:16;;;;;;;26.80;3.42;;;10.60;99.90;;;;;;5039428;28;20091;-71
2023/01/06 03:17:42;;;;;;;14.23;2.67;;;10.50;99.90;;;;;;5056597;28;20060;-72
2023/01/06 03:20:10;;;;;;;27.00;3.13;;;10.50;99.90;;;;;;5056694;28;20039;-71
2023/01/06 03:22:37;;;;;;;23.17;3.08;;;10.50;99.90;;;;;;5057222;28;20037;-72
2023/01/06 03:25:05;;;;;;;20.45;2.25;;;10.40;99.90;;;;;;5035213;28;20035;-72
2023/01/06 03:27:31;;;;;;;27.38;3.28;;;10.30;99.90;;;;;;5054711;28;20041;-71
2023/01/06 03:29:57;;;;;;;31.92;2.60;;;10.20;99.90;;;;;;5054047;28;21745;-72
2023/01/06 03:32:43;;;;;;;27.23;2.60;;;10.20;99.90;;;;;;5055717;28;20024;-72
2023/01/06 03:36:07;;;;;;;19.02;2.50;;;10.20;99.90;;;;;;5053547;28;20116;-71
2023/01/06 03:38:41;;;;;;;28.58;2.70;;;10.10;99.90;;;;;;4991743;28;20643;-72
2023/01/06 03:44:41;;;;;;;23.90;2.53;;;10.20;99.90;;;;;;5068042;28;20126;-71
2023/01/06 03:47:25;;;;;;;23.20;4.43;;;10.20;99.90;;;;;;5076126;28;20171;-71
2023/01/06 03:50:05;;;;;;;20.65;2.78;;;10.30;99.90;;;;;;5074367;28;20032;-71
2023/01/06 03:52:36;;;;;;;21.85;2.38;;;10.40;99.90;;;;;;5075223;28;20032;-71
2023/01/06 03:55:06;;;;;;;21.40;2.57;;;10.50;99.90;;;;;;5077151;28;20418;-71
2023/01/06 03:57:42;;;;;;;11.30;1.87;;;10.50;99.90;;;;;;5076055;28;20036;-70
2023/01/06 04:00:13;;;;;;;9.65;1.13;;;10.50;99.90;;;;;;5077730;28;20435;-71
2023/01/06 04:02:40;;;;;;;4.43;0.70;;;10.40;99.90;;;;;;5077838;28;20032;-71
2023/01/06 04:05:10;;;;;;;3.60;0.65;;;10.30;99.90;;;;;;5065024;28;20024;-71
2023/01/06 04:07:37;;;;;;;3.10;0.65;;;10.20;99.90;;;;;;5075326;28;20036;-71
2023/01/06 04:10:04;;;;;;;1.25;0.28;;;10.10;99.90;;;;;;5077150;28;20046;-70
2023/01/06 04:12:38;;;;;;;3.20;0.35;;;10.10;99.90;;;;;;5078527;28;20120;-71
2023/01/06 04:15:25;;;;;;;2.90;0.30;;;10.00;99.90;;;;;;5076202;28;20039;-71
2023/01/06 04:17:51;;;;;;;2.92;0.20;;;9.90;99.90;;;;;;5073219;28;20039;-71
2023/01/06 04:20:20;;;;;;;3.50;0.40;;;9.80;99.90;;;;;;5054256;28;20024;-71
2023/01/06 04:22:45;;;;;;;0.60;0.30;;;9.70;99.90;;;;;;5069638;28;20545;-71
2023/01/06 04:25:11;;;;;;;1.23;0.25;;;9.60;99.90;;;;;;5075833;28;20115;-71
2023/01/06 04:27:37;;;;;;;1.65;0.20;;;9.40;99.90;;;;;;5074415;28;20109;-71
2023/01/06 04:30:04;;;;;;;0.50;0.30;;;9.30;99.90;;;;;;5075224;28;20020;-70
2023/01/06 04:32:29;;;;;;;0.85;0.20;;;9.10;99.90;;;;;;5076974;28;21884;-71
2023/01/06 04:34:55;;;;;;;1.20;0.20;;;9.00;99.90;;;;;;5075885;28;20154;-73
2023/01/06 04:37:21;;;;;;;1.80;0.25;;;8.80;99.90;;;;;;5046379;28;20041;-73
2023/01/06 04:39:46;;;;;;;0.60;0.20;;;8.60;99.90;;;;;;5039693;28;20039;-73
2023/01/06 04:42:12;;;;;;;1.25;0.20;;;8.40;99.90;;;;;;5056890;28;20120;-73
2023/01/06 04:44:37;;;;;;;1.10;0.20;;;8.30;99.90;;;;;;5057456;28;20556;-72
2023/01/06 04:47:03;;;;;;;0.80;0.20;;;8.20;99.90;;;;;;5054738;28;20028;-72
2023/01/06 04:49:29;;;;;;;1.35;0.20;;;8.10;99.90;;;;;;5057230;28;20041;-73
2023/01/06 04:51:54;;;;;;;0.95;0.20;;;8.00;99.90;;;;;;5054717;28;20383;-73
2023/01/06 04:54:20;;;;;;;1.77;0.20;;;7.90;99.90;;;;;;5055790;28;20417;-73
2023/01/06 04:56:46;;;;;;;0.30;0.20;;;7.80;99.90;;;;;;5055651;28;20484;-73
2023/01/06 04:59:11;;;;;;;1.33;0.17;;;7.70;99.90;;;;;;5056526;28;20039;-73
2023/01/06 05:01:37;;;;;;;0.57;0.20;;;7.60;99.90;;;;;;5052541;28;20032;-73
2023/01/06 05:04:06;;;;;;;1.98;0.25;;;7.60;99.90;;;;;;5054179;28;20047;-72
2023/01/06 05:06:32;;;;;;;0.20;0.20;;;7.50;99.90;;;;;;5063422;28;20083;-72
2023/01/06 05:08:57;;;;;;;1.85;0.25;;;7.40;99.90;;;;;;5061630;28;20667;-72
2023/01/06 05:11:24;;;;;;;0.20;0.20;;;7.30;99.90;;;;;;5055939;28;20097;-72
2023/01/06 05:13:51;;;;;;;1.98;0.32;;;7.20;99.90;;;;;;5058689;28;20036;-72
2023/01/06 05:16:21;;;;;;;1.38;0.30;;;7.10;99.90;;;;;;5055678;28;20086;-72
2023/01/06 05:18:47;;;;;;;1.27;0.20;;;7.10;99.90;;;;;;5054095;28;20268;-72
2023/01/06 05:21:13;;;;;;;0.52;0.20;;;7.00;99.90;;;;;;5054255;28;20139;-72
2023/01/06 05:23:39;;;;;;;0.98;0.20;;;7.00;99.90;;;;;;5055096;28;20074;-71
2023/01/06 05:26:05;;;;;;;1.23;0.20;;;7.00;99.90;;;;;;5055831;28;20384;-72
2023/01/06 05:28:31;;;;;;;1.33;0.30;;;7.00;99.90;;;;;;5057238;28;20062;-71
2023/01/06 05:31:01;;;;;;;1.52;0.30;;;7.00;99.90;;;;;;5053558;28;20060;-72
2023/01/06 05:33:27;;;;;;;0.40;0.30;;;6.90;99.90;;;;;;5054101;28;20456;-72
2023/01/06 05:36:01;;;;;;;1.27;0.28;;;6.90;99.90;;;;;;5053854;28;20032;-71
2023/01/06 05:38:26;;;;;;;1.13;0.68;;;6.90;99.90;;;;;;5057442;28;20131;-71
2023/01/06 05:40:53;;;;;;;0.75;0.30;;;6.90;99.90;;;;;;5060450;28;20629;-71
2023/01/06 05:43:19;;;;;;;1.55;0.25;;;6.80;99.90;;;;;;5060348;28;20028;-71
2023/01/06 05:45:45;;;;;;;3.08;0.35;;;6.80;99.90;;;;;;5060240;28;20033;-71
2023/01/06 05:48:11;;;;;;;0.90;0.30;;;6.70;99.90;;;;;;5058996;28;20436;-72
2023/01/06 05:50:36;;;;;;;1.35;0.28;;;6.70;99.90;;;;;;5060235;28;20028;-72
2023/01/06 05:53:02;;;;;;;1.50;0.30;;;6.70;99.90;;;;;;5057366;28;20181;-71
2023/01/06 05:55:28;;;;;;;1.10;0.38;;;6.70;99.90;;;;;;5061045;28;20510;-72
2023/01/06 05:57:53;;;;;;;0.95;0.30;;;6.60;99.90;;;;;;5060548;28;20573;-71
2023/01/06 06:00:19;;;;;;;1.15;0.25;;;6.60;99.90;;;;;;5059874;28;20411;-72
2023/01/06 06:02:45;;;;;;;4.75;0.30;;;6.60;99.90;;;;;;5057366;28;20142;-72
2023/01/06 06:05:10;;;;;;;1.33;0.20;;;6.50;99.90;;;;;;5057206;28;20270;-71
2023/01/06 06:07:36;;;;;;;1.42;0.35;;;6.40;99.90;;;;;;5056223;28;20071;-71
2023/01/06 06:10:02;;;;;;;0.98;0.30;;;6.40;99.90;;;;;;5058802;28;20399;-72
2023/01/06 06:12:28;;;;;;;1.65;0.30;;;6.40;99.90;;;;;;5057084;28;20028;-72
2023/01/06 06:14:54;;;;;;;1.98;0.50;;;6.30;99.90;;;;;;5057739;28;20643;-71
2023/01/06 06:17:19;;;;;;;0.15;0.15;;;6.20;99.90;;;;;;5058411;28;20028;-72
2023/01/06 06:19:45;;;;;;;4.85;0.55;;;6.20;99.90;;;;;;5048799;28;20047;-71
2023/01/06 06:22:11;;;;;;;0.40;0.20;;;6.20;99.90;;;;;;5058884;28;20043;-72
2023/01/06 06:24:36;;;;;;;2.03;0.30;;;6.20;99.90;;;;;;5057291;28;20424;-71
2023/01/06 06:27:02;;;;;;;2.00;0.30;;;6.10;99.90;;;;;;5056975;28;20040;-72
2023/01/06 06:29:28;;;;;;;2.22;0.30;;;6.10;99.90;;;;;;5070857;28;20078;-71
2023/01/06 06:31:53;;;;;;;1.33;0.50;;;6.10;99.90;;;;;;5062113;28;20485;-72
2023/01/06 06:34:19;;;;;;;2.30;0.40;;;6.00;99.90;;;;;;5059933;28;20032;-72
2023/01/06 06:36:45;;;;;;;0.25;0.20;;;6.00;99.90;;;;;;5058487;28;20037;-72
2023/01/06 06:39:10;;;;;;;0.75;0.30;;;6.00;99.90;;;;;;5058968;28;20044;-72
2023/01/06 06:41:36;;;;;;;1.80;0.47;;;6.10;99.90;;;;;;5057860;28;20028;-71
2023/01/06 06:44:02;;;;;;;3.78;0.40;;;6.10;99.90;;;;;;5056687;28;20107;-72
2023/01/06 06:46:28;;;;;;;1.70;0.35;;;6.20;99.90;;;;;;5058309;28;20028;-72
2023/01/06 06:48:54;;;;;;;0.93;0.40;;;6.20;99.90;;;;;;5058232;28;20441;-72
2023/01/06 06:51:21;;;;;;;2.53;0.50;;;6.10;99.90;;;;;;5055700;28;20747;-71
2023/01/06 06:53:47;;;;;;;2.00;0.40;;;6.10;99.90;;;;;;5056194;28;20648;-72
2023/01/06 06:56:14;;;;;;;1.33;0.32;;;6.20;99.90;;;;;;5056745;28;20077;-72
2023/01/06 06:58:40;;;;;;;0.85;0.40;;;6.20;99.90;;;;;;5056198;28;20032;-72
2023/01/06 07:01:11;;;;;;;0.40;0.30;;;6.20;99.90;;;;;;5055848;28;20552;-72
2023/01/06 07:03:37;;;;;;;4.15;0.40;;;6.20;99.90;;;;;;5035348;28;20151;-72
2023/01/06 07:06:03;;;;;;;0.50;0.40;;;6.20;99.90;;;;;;5053801;28;20047;-71
2023/01/06 07:08:31;;;;;;;1.45;0.40;;;6.10;99.90;;;;;;5057856;28;20062;-72
2023/01/06 07:10:57;;;;;;;2.40;0.47;;;6.10;99.90;;;;;;5059248;28;20028;-71
2023/01/06 07:13:23;;;;;;;1.52;0.40;;;6.00;99.90;;;;;;5058545;28;20552;-72
2023/01/06 07:15:48;;;;;;;1.88;0.50;;;6.00;99.90;;;;;;5058482;28;20024;-72
2023/01/06 07:18:14;;;;;;;2.40;0.60;;;5.90;99.90;;;;;;5036510;28;20097;-71
2023/01/06 07:20:40;;;;;;;2.38;0.68;;;5.90;99.90;;;;;;5057911;28;20056;-71
2023/01/06 07:23:05;;;;;;;1.90;0.50;;;5.90;99.90;;;;;;5057728;28;20024;-72
2023/01/06 07:25:31;;;;;;;0.50;0.40;;;5.90;99.90;;;;;;5061383;28;20347;-71
2023/01/06 07:27:59;;;;;;;2.25;0.90;;;5.90;99.90;;;;;;5064624;28;20041;-72
2023/01/06 07:30:26;;;;;;;10.18;5.85;;;5.90;99.90;;;;;;5050005;28;20044;-72
2023/01/06 07:32:52;;;;;;;8.88;4.88;;;5.90;99.90;;;;;;5056693;28;20040;-72
2023/01/06 07:35:18;;;;;;;4.78;2.05;;;5.90;99.90;;;;;;5056842;28;20151;-71
2023/01/06 07:37:44;;;;;;;3.40;1.95;;;5.90;99.90;;;;;;5059396;28;20041;-72
2023/01/06 07:40:11;;;;;;;1.50;0.70;;;5.90;99.90;;;;;;4706151;28;10000291;-72
2023/01/06 07:42:36;;;;;;;1.40;0.60;;;5.80;99.90;;;;;;5055722;28;20032;-72
2023/01/06 07:45:03;;;;;;;1.50;0.47;;;5.90;99.90;;;;;;5033000;28;20028;-72
2023/01/06 07:47:29;;;;;;;4.07;1.00;;;5.90;99.90;;;;;;5057913;28;20063;-72
2023/01/06 07:49:54;;;;;;;0.52;0.45;;;5.90;99.90;;;;;;5049451;28;20439;-71
2023/01/06 07:52:20;;;;;;;1.20;0.60;;;5.90;99.90;;;;;;5042129;28;20675;-72
2023/01/06 07:54:46;;;;;;;6.07;0.80;;;5.90;99.90;;;;;;5043656;28;20039;-71
2023/01/06 07:57:11;;;;;;;4.68;0.60;;;5.90;99.90;;;;;;5050040;28;20039;-71
2023/01/06 07:59:37;;;;;;;1.10;0.52;;;5.90;99.90;;;;;;5051758;28;20039;-72
2023/01/06 08:02:03;;;;;;;3.75;1.00;;;6.00;99.90;;;;;;5042698;28;20178;-71
2023/01/06 08:04:28;;;;;;;2.15;0.70;;;6.00;99.90;;;;;;5033940;28;20901;-72
2023/01/06 08:06:54;;;;;;;4.70;0.75;;;6.00;99.90;;;;;;5050555;28;20336;-72
2023/01/06 08:09:19;;;;;;;1.38;0.63;;;6.10;99.90;;;;;;5051229;28;20470;-71
2023/01/06 08:11:45;;;;;;;1.58;0.60;;;6.10;99.90;;;;;;5053073;28;20486;-71
2023/01/06 08:14:12;;;;;;;1.55;0.70;;;6.20;99.90;;;;;;5053727;28;20044;-72
2023/01/06 08:16:38;;;;;;;4.28;0.70;;;6.30;99.90;;;;;;5053177;28;20028;-72
2023/01/06 08:19:04;;;;;;;2.30;0.55;;;6.40;99.90;;;;;;5060435;28;20853;-72
2023/01/06 08:21:30;;;;;;;1.58;0.52;;;6.50;99.90;;;;;;5052626;28;20027;-71
2023/01/06 08:23:56;;;;;;;1.88;0.60;;;6.50;99.90;;;;;;5056053;28;20029;-72
2023/01/06 08:26:22;;;;;;;2.38;0.50;;;6.60;99.90;;;;;;5048683;28;20032;-72
2023/01/06 08:28:48;;;;;;;3.88;0.70;;;6.60;99.90;;;;;;5042506;28;20045;-71
2023/01/06 08:31:20;;;;;;;5.10;1.00;;;6.60;99.90;;;;;;5045844;28;20122;-71
2023/01/06 08:33:46;;;;;;;2.40;0.70;;;6.70;99.90;;;;;;5035349;28;20145;-71
2023/01/06 08:36:15;;;;;;;3.03;1.40;;;6.90;99.90;;;;;;5064362;28;20473;-72
2023/01/06 08:38:41;;;;;;;3.03;0.50;;;7.00;99.90;;;;;;5069199;28;20029;-72
2023/01/06 08:41:07;;;;;;;2.45;0.50;;;7.10;99.90;;;;;;5036162;28;20127;-72
2023/01/06 08:43:33;;;;;;;4.30;0.63;;;7.30;99.90;;;;;;5054401;28;20262;-72
2023/01/06 08:46:05;;;;;;;3.85;0.60;;;7.40;99.90;;;;;;5052778;28;20103;-72
2023/01/06 08:48:32;;;;;;;5.70;0.50;;;7.70;99.90;;;;;;5035185;28;20089;-71
2023/01/06 08:51:07;;;;;;;5.32;0.50;;;7.90;99.90;;;;;;5043991;28;20333;-71
2023/01/06 08:53:33;;;;;;;2.15;0.60;;;8.10;99.90;;;;;;5044534;28;20453;-71
2023/01/06 08:55:59;;;;;;;3.10;0.40;;;8.20;99.90;;;;;;5045216;28;20056;-71
2023/01/06 08:58:25;;;;;;;2.60;0.50;;;8.30;99.90;;;;;;5044314;28;20475;-72
2023/01/06 09:00:51;;;;;;;3.85;0.73;;;8.50;99.90;;;;;;5044459;28;20032;-72
2023/01/06 09:03:17;;;;;;;3.58;0.70;;;8.60;99.90;;;;;;5034337;28;20067;-71
2023/01/06 09:05:43;;;;;;;3.15;0.88;;;8.70;99.90;;;;;;5053891;28;20147;-71
2023/01/06 09:08:08;;;;;;;3.88;0.60;;;8.80;99.90;;;;;;5052224;28;20551;-71
2023/01/06 09:10:38;;;;;;;5.40;0.70;;;8.90;99.90;;;;;;5057990;28;20021;-71
2023/01/06 09:13:04;;;;;;;1.80;0.47;;;9.00;99.90;;;;;;5045270;28;20402;-71
2023/01/06 09:15:29;;;;;;;3.17;0.50;;;9.20;99.90;;;;;;5053145;28;20028;-71
2023/01/06 09:17:55;;;;;;;4.20;0.60;;;9.60;99.90;;;;;;5050201;28;20647;-72
2023/01/06 09:20:20;;;;;;;2.78;0.85;;;10.30;99.90;;;;;;5046966;28;20028;-71
2023/01/06 09:22:46;;;;;;;3.70;0.63;;;11.00;99.90;;;;;;5045058;28;20142;-71
2023/01/06 09:25:12;;;;;;;2.40;0.70;;;11.50;99.90;;;;;;5031641;28;20206;-71
2023/01/06 09:27:38;;;;;;;4.18;0.60;;;11.60;99.90;;;;;;5048785;28;20040;-71
2023/01/06 09:30:04;;;;;;;2.05;0.50;;;11.80;99.90;;;;;;5032424;28;20033;-72
2023/01/06 09:32:30;;;;;;;4.90;0.50;;;12.00;99.90;;;;;;5051592;28;20125;-71
2023/01/06 09:34:55;;;;;;;4.00;0.60;;;12.10;99.90;;;;;;5056021;28;20483;-72
2023/01/06 09:37:21;;;;;;;3.95;0.40;;;12.10;99.90;;;;;;5046938;28;20365;-72
2023/01/06 09:39:46;;;;;;;4.82;0.50;;;12.20;99.90;;;;;;5043579;28;20025;-71
2023/01/06 09:42:39;;;;;;;5.50;0.70;;;12.30;99.90;;;;;;5046149;28;20407;-71
2023/01/06 09:45:27;;;;;;;2.80;0.50;;;12.50;99.90;;;;;;5043477;28;20028;-72
2023/01/06 09:47:57;;;;;;;4.75;0.50;;;12.60;99.90;;;;;;5050329;28;20085;-72
2023/01/06 09:50:40;;;;;;;7.90;0.90;;;12.60;99.90;;;;;;5053657;28;20195;-71
2023/01/06 09:55:59;;;;;;;5.30;0.95;;;12.80;99.90;;;;;;5038145;28;20111;-82
2023/01/06 09:58:43;;;;;;;4.43;0.95;;;13.10;99.90;;;;;;5029982;28;20111;-82
2023/01/06 10:01:14;;;;;;;6.75;1.00;;;13.30;99.90;;;;;;5021505;28;20472;-83
2023/01/06 10:03:40;;;;;;;;;;;13.80;98.30;;;;;;5036159;28;20025;-82
2023/01/06 10:06:19;;;;;;;8.77;1.10;;;13.90;99.40;;;;;;5043336;28;20319;-82
2023/01/06 10:09:15;;;;;;;3.13;0.73;;;14.00;98.40;;;;;;5018007;28;20045;-82
2023/01/06 10:12:02;;;;;;;4.35;1.08;;;14.00;96.80;;;;;;5022015;28;20035;-82
2023/01/06 10:14:57;;;;;;;7.80;1.45;;;13.90;95.80;;;;;;5032731;28;20024;-82
2023/01/06 10:17:41;;;;;;;6.75;0.95;;;14.10;95.30;;;;;;5023981;28;20527;-82
2023/01/06 10:20:06;;;;;;;6.45;1.02;;;14.50;90.90;;;;;;5022622;28;20025;-82
2023/01/06 10:22:55;;;;;;;10.35;1.23;;;14.80;83.50;;;;;;5022710;28;20044;-82
2023/01/06 10:25:43;;;;;;;6.75;0.88;;;14.50;84.30;;;;;;5018206;28;20060;-82
2023/01/06 10:28:28;;;;;;;5.18;0.70;;;14.20;85.70;;;;;;5018885;28;20045;-82
2023/01/06 10:30:58;;;;;;;4.00;0.60;;;14.10;90.40;;;;;;5030808;28;20369;-83
2023/01/06 10:33:31;;;;;;;4.53;0.85;;;13.40;94.70;;;;;;5022628;28;20059;-82
2023/01/06 10:35:58;;;;;;;5.05;0.80;;;13.40;98.30;;;;;;5013278;28;20083;-82
2023/01/06 10:38:45;;;;;;;6.78;0.77;;;13.60;99.00;;;;;;5030503;28;20119;-82
2023/01/06 10:41:11;;;;;;;2.22;0.47;;;13.60;96.90;;;;;;5024930;28;20554;-82
2023/01/06 10:43:36;;;;;;;6.28;0.98;;;13.80;95.30;;;;;;5043754;28;20659;-82
2023/01/06 10:46:02;;;;;;;7.18;0.80;;;13.70;96.90;;;;;;5022664;28;20033;-82
2023/01/06 10:48:31;;;;;;;6.50;0.93;;;14.00;96.50;;;;;;5040803;28;20514;-82
2023/01/06 10:50:57;;;;;;;4.78;0.73;;;14.00;92.20;;;;;;5021873;28;20506;-82
2023/01/06 10:53:22;;;;;;;4.88;0.52;;;14.30;93.50;;;;;;5020235;28;20065;-82
2023/01/06 10:55:59;;;;;;;10.25;0.98;;;14.60;93.90;;;;;;5022473;28;20029;-83
2023/01/06 10:58:44;;;;;;;4.53;0.80;;;14.50;90.50;;;;;;5040860;28;20176;-83
2023/01/06 11:01:21;;;;;;;6.72;0.70;;;14.20;88.60;;;;;;5042033;28;20182;-82
2023/01/06 11:04:08;;;;;;;7.95;0.70;;;14.20;94.70;;;;;;5042870;28;20100;-82
2023/01/06 11:06:35;;;;;;;6.50;1.00;;;14.40;93.20;;;;;;5041424;28;20025;-83
2023/01/06 11:09:07;;;;;;;6.70;0.70;;;14.00;92.10;;;;;;4695721;28;10000330;-82
2023/01/06 11:11:46;;;;;;;5.22;0.70;;;14.20;93.60;;;;;;5024465;28;20083;-83
2023/01/06 11:14:15;;;;;;;7.32;0.90;;;14.10;95.00;;;;;;5027107;28;20070;-82
2023/01/06 11:16:41;;;;;;;7.15;0.73;;;14.20;96.70;;;;;;5038669;28;20029;-82
2023/01/06 11:19:21;;;;;;;7.93;0.82;;;13.90;97.30;;;;;;5031652;28;20025;-82
2023/01/06 11:21:47;;;;;;;8.38;0.73;;;14.20;94.10;;;;;;5044083;28;20469;-82
2023/01/06 11:24:23;;;;;;;4.82;0.80;;;13.90;93.40;;;;;;5043791;28;20025;-83
2023/01/06 11:26:55;;;;;;;5.85;0.95;;;14.20;95.80;;;;;;5041657;28;20081;-82
2023/01/06 11:29:33;;;;;;;5.40;0.80;;;14.10;94.90;;;;;;5039601;28;20140;-82
2023/01/06 11:32:03;;;;;;;3.42;0.50;;;13.80;96.20;;;;;;5040942;28;20087;-82
2023/01/06 11:34:30;;;;;;;5.65;0.90;;;13.50;98.90;;;;;;5041206;28;20028;-82
2023/01/06 11:36:56;;;;;;;4.40;0.63;;;13.30;96.40;;;;;;5026953;28;20445;-82
2023/01/06 11:39:25;;;;;;;7.32;0.77;;;13.00;99.90;;;;;;5021628;28;20025;-83
2023/01/06 11:41:52;;;;;;;5.63;0.77;;;13.00;99.90;;;;;;5035982;28;20048;-82
2023/01/06 11:44:29;;;;;;;5.53;0.77;;;13.10;99.90;;;;;;5043836;28;20020;-83
2023/01/06 11:47:17;;;;;;;4.65;0.85;;;13.20;99.90;;;;;;5024636;28;20828;-82
2023/01/06 11:49:51;;;;;;;6.65;0.80;;;13.40;99.90;;;;;;5017932;28;20094;-82
2023/01/06 11:52:16;;;;;;;8.23;0.77;;;13.30;99.90;;;;;;5016564;28;20064;-82
2023/01/06 11:54:42;;;;;;;5.40;0.93;;;13.10;99.90;;;;;;5031708;28;20052;-83
2023/01/06 11:57:17;;;;;;;4.03;0.60;;;13.10;99.90;;;;;;5052278;28;20082;-82
2023/01/06 11:59:59;;;;;;;5.25;0.50;;;13.10;99.90;;;;;;5039000;28;20039;-82
2023/01/06 12:02:53;;;;;;;7.75;1.02;;;13.30;99.90;;;;;;5058237;28;20029;-82
2023/01/06 12:05:31;;;;;;;4.57;0.65;;;13.40;99.90;;;;;;5041839;28;20730;-82
2023/01/06 12:07:57;;;;;;;6.75;0.75;;;13.70;99.90;;;;;;5042034;28;20457;-82
2023/01/06 12:10:29;;;;;;;6.65;0.75;;;13.90;99.90;;;;;;5064140;28;20133;-82
2023/01/06 12:12:54;;;;;;;10.32;0.77;;;14.30;99.90;;;;;;5044144;28;20036;-82
2023/01/06 12:15:21;;;;;;;6.88;0.93;;;15.00;99.90;;;;;;5041838;28;20453;-81
2023/01/06 12:17:56;;;;;;;4.80;0.70;;;15.30;90.10;;;;;;5043257;28;20028;-82
2023/01/06 12:20:31;;;;;;;6.93;0.93;;;15.50;90.80;;;;;;5056308;28;20048;-82
2023/01/06 12:22:59;;;;;;;4.32;0.60;;;15.50;89.80;;;;;;5040579;28;20035;-82
2023/01/06 12:25:30;;;;;;;6.38;0.60;;;15.10;94.60;;;;;;5060074;28;20368;-82
2023/01/06 12:28:10;;;;;;;8.75;0.70;;;15.10;96.00;;;;;;5060335;28;20048;-83
2023/01/06 12:31:17;;;;;;;8.68;0.68;;;15.10;95.90;;;;;;5034496;28;20032;-82
2023/01/06 12:34:03;;;;;;;7.20;0.65;;;14.90;94.70;;;;;;5021351;28;20037;-82
2023/01/06 12:36:56;;;;;;;4.60;0.50;;;15.10;99.90;;;;;;5042055;28;20090;-83
2023/01/06 12:39:34;;;;;;;5.95;0.77;;;14.70;91.50;;;;;;5040857;28;20029;-82
2023/01/06 12:42:14;;;;;;;5.85;0.85;;;14.00;99.90;;;;;;5032925;28;20046;-82
2023/01/06 12:44:45;;;;;;;5.88;0.77;;;14.00;99.10;;;;;;5044206;28;20336;-82
2023/01/06 12:47:21;;;;;;;6.30;0.52;;;13.90;99.90;;;;;;5042986;28;20466;-83
2023/01/06 12:49:59;;;;;;;5.95;0.60;;;13.80;99.90;;;;;;5037069;28;20075;-82
2023/01/06 12:52:37;;;;;;;6.78;1.00;;;13.30;99.90;;;;;;5053962;28;20020;-82
2023/01/06 12:55:04;;;;;;;4.32;0.60;;;13.20;99.90;;;;;;5031271;28;20148;-82
2023/01/06 12:57:54;;;;;;;5.80;0.68;;;13.30;99.90;;;;;;5053854;28;20552;-82
2023/01/06 13:01:00;;;;;;;8.23;1.17;;;13.10;99.90;;;;;;5061669;28;20441;-83
2023/01/06 13:03:54;;;;;;;5.88;0.65;;;13.00;99.90;;;;;;5040030;28;20189;-82
2023/01/06 13:06:43;;;;;;;4.93;0.60;;;12.90;99.90;;;;;;4990901;28;20033;-82
2023/01/06 13:09:18;;;;;;;7.35;0.80;;;12.80;99.90;;;;;;5007509;28;20132;-82
2023/01/06 13:11:46;;;;;;;3.72;0.40;;;12.80;99.90;;;;;;5060904;28;20036;-82
2023/01/06 13:14:26;;;;;;;1.98;0.43;;;12.80;99.90;;;;;;5043690;28;20488;-82